Stations météo

réclame
Mon MeteoGroup
Arties, Espagne (8107): Température de l'air & dewpoint: 15.02.2018 11:00:00 - 21.02.2018 11:00:00 (CET)Arties, Espagne (8107): Vitesse du vent & gusts: 15.02.2018 11:00:00 - 21.02.2018 11:00:00 (CET)Arties, Espagne (8107): Direction du vent: 15.02.2018 11:00:00 - 21.02.2018 11:00:00 (CET)Arties, Espagne (8107): Quantités de précipitations: 15.02.2018 11:00:00 - 21.02.2018 11:00:00 (CET)
Date & Time tt [°C] td [°C] ff [km/h] ff [knt] fx [km/h] fx [knt] dd rr [mm]
21.02.2018 11:00:00 0,5 -3,3 1 1 28 15 SW 0,1
21.02.2018 10:00:00 0,2 -1,0 3 1 22 12 SW 0,8
21.02.2018 09:00:00 0,1 -0,7 4 2 22 12 SW 1,1
21.02.2018 08:00:00 0,0 -0,5 5 3 19 10 SW 1,5
21.02.2018 07:00:00 0,2 -0,3 5 3 20 11 SW -
21.02.2018 06:00:00 0,4 -0,3 4 2 17 9 WSW 0,5
21.02.2018 05:00:00 0,4 -0,3 4 2 18 10 SW 0,3
21.02.2018 04:00:00 0,7 -0,3 6 3 21 12 WSW 1,0
21.02.2018 03:00:00 1,8 0,2 8 4 28 15 SW 0,7
21.02.2018 02:00:00 2,2 0,4 2 1 25 13 NE 0,1
21.02.2018 01:00:00 1,9 0,9 6 3 20 11 W -
21.02.2018 00:00:00 1,7 1,1 5 3 16 9 SW 0,6
20.02.2018 23:00:00 1,6 0,6 4 2 14 7 SSW 0,5
20.02.2018 22:00:00 1,9 0,6 4 2 21 12 SW 0,5
20.02.2018 21:00:00 2,2 0,9 6 3 25 14 SSW 1,2
20.02.2018 20:00:00 2,4 0,9 10 6 29 16 SW 1,1
20.02.2018 19:00:00 2,2 0,6 6 3 21 11 SW -
20.02.2018 18:00:00 2,4 0,9 2 1 15 8 NE 0,1
20.02.2018 17:00:00 1,9 0,6 2 1 9 5 ENE 0,3
20.02.2018 16:00:00 1,8 0,9 2 1 10 6 SSW 0,5
20.02.2018 15:00:00 1,5 0,4 2 1 10 5 SSW 1,2
20.02.2018 14:00:00 1,8 0,4 1 1 6 4 SSW 1,2
20.02.2018 13:00:00 0,9 0,0 3 2 14 8 SSW -
20.02.2018 12:00:00 1,1 0,4 2 1 12 7 WSW 2,3
20.02.2018 11:00:00 1,0 0,2 0 0 4 2 WSW 3,3
20.02.2018 10:00:00 0,9 0,4 0 0 6 3 WSW 3,4
20.02.2018 09:00:00 - - - - - - - -
20.02.2018 08:00:00 0,5 0,0 0 0 6 3 N 3,8
20.02.2018 07:00:00 0,5 0,0 3 2 12 6 S -
20.02.2018 06:00:00 0,5 0,0 5 3 10 5 SW 1,6
20.02.2018 05:00:00 0,6 0,0 0 0 4 2 N 1,8
20.02.2018 04:00:00 0,7 0,2 0 0 6 3 S 1,8
20.02.2018 03:00:00 0,9 0,4 2 1 10 6 SE 1,8
20.02.2018 02:00:00 0,9 0,4 2 1 8 4 E 1,3
20.02.2018 01:00:00 1,0 0,4 3 2 5 3 ENE -
20.02.2018 00:00:00 1,4 0,9 2 1 6 4 E 1,4
19.02.2018 23:00:00 1,6 0,9 3 2 10 5 E 1,4
19.02.2018 22:00:00 1,6 0,9 5 3 10 5 NE 2,5
19.02.2018 21:00:00 2,5 1,7 2 1 8 5 ENE 1,8
19.02.2018 20:00:00 2,9 2,1 5 3 13 7 ENE 0,7
19.02.2018 19:00:00 3,0 2,3 2 1 7 4 SE -
19.02.2018 18:00:00 3,6 2,7 1 0 10 5 NNE 1,1
19.02.2018 17:00:00 4,7 3,2 3 2 9 5 SSE 0,7
19.02.2018 16:00:00 5,6 2,9 2 1 6 3 SE 0,0
19.02.2018 15:00:00 6,2 3,0 0 0 4 2 WSW 0,3
19.02.2018 14:00:00 5,6 2,9 0 0 - - N -
19.02.2018 13:00:00 4,5 1,5 0 0 8 5 N -
19.02.2018 12:00:00 3,8 1,3 0 0 2 1 N 0,7
19.02.2018 11:00:00 2,4 0,9 2 1 3 2 N 1,3
19.02.2018 10:00:00 1,9 0,9 0 0 3 2 ENE 0,6
19.02.2018 09:00:00 1,1 0,6 1 0 4 2 NW 0,5
19.02.2018 08:00:00 0,6 0,2 0 0 5 3 WSW 1,0
19.02.2018 07:00:00 0,5 0,0 0 0 4 2 N -
19.02.2018 06:00:00 0,5 0,0 0 0 0 0 N 0,7
19.02.2018 05:00:00 0,6 0,2 0 0 0 0 N 0,6
19.02.2018 04:00:00 0,6 0,2 0 0 0 0 N 0,5
19.02.2018 03:00:00 0,5 0,0 0 0 1 1 N 1,6
19.02.2018 02:00:00 0,5 0,0 0 0 0 0 N 1,7
19.02.2018 01:00:00 0,4 -0,3 0 0 1 0 N -
19.02.2018 00:00:00 0,5 0,0 0 0 0 0 N 1,9
18.02.2018 23:00:00 0,6 0,0 0 0 0 0 N 2,5
18.02.2018 22:00:00 0,6 0,0 0 0 0 0 WNW 1,3
18.02.2018 21:00:00 0,6 0,0 0 0 0 0 N 2,2
18.02.2018 20:00:00 0,7 0,0 0 0 0 0 N 2,3
18.02.2018 19:00:00 0,9 0,0 0 0 0 0 N -
18.02.2018 18:00:00 1,3 -0,3 0 0 0 0 N 2,0
18.02.2018 17:00:00 1,8 0,0 0 0 7 4 N 1,1
18.02.2018 16:00:00 3,1 -1,0 3 2 21 11 WSW 0,0
18.02.2018 15:00:00 6,1 -5,7 5 3 16 9 SW 0,0
18.02.2018 14:00:00 6,8 -6,0 3 2 6 4 SSW 0,0
18.02.2018 13:00:00 5,1 -5,7 3 2 6 4 SW -
18.02.2018 12:00:00 4,3 -3,6 1 0 6 3 SSW 0,0
18.02.2018 11:00:00 1,4 -2,5 0 0 3 1 N 0,0
18.02.2018 10:00:00 -2,0 -4,8 1 1 10 5 SSE 0,0
18.02.2018 09:00:00 -1,8 -5,7 7 4 12 7 ENE 0,0
18.02.2018 08:00:00 -2,0 -5,4 6 4 11 6 ENE 0,0
18.02.2018 07:00:00 -1,8 -4,8 4 2 8 4 ENE -
18.02.2018 06:00:00 -0,7 -3,3 2 1 8 5 E 0,0
18.02.2018 05:00:00 -0,4 -3,6 4 2 9 5 ENE 0,0
18.02.2018 04:00:00 -1,0 -2,5 3 2 8 4 ENE 0,0
18.02.2018 03:00:00 -1,6 -2,5 1 0 6 4 NE 0,0
18.02.2018 02:00:00 -0,8 -1,7 2 1 6 3 NE 0,0
18.02.2018 01:00:00 0,2 -1,0 3 1 5 3 E -
18.02.2018 00:00:00 0,8 -0,3 1 1 3 2 ESE 0,0
17.02.2018 23:00:00 1,2 -0,5 0 0 4 2 SSE 0,0
17.02.2018 22:00:00 2,0 0,0 3 2 10 6 SE 0,0
17.02.2018 21:00:00 2,1 -0,3 4 2 11 6 WSW 0,0
17.02.2018 20:00:00 2,4 -0,3 0 0 11 6 NE 0,0
17.02.2018 19:00:00 2,9 0,9 4 2 14 8 W -
17.02.2018 18:00:00 3,3 1,3 3 2 18 10 SW 0,0
17.02.2018 17:00:00 4,2 1,3 4 2 19 10 WSW 0,0
17.02.2018 16:00:00 4,6 1,3 5 3 15 8 SW 0,0
17.02.2018 15:00:00 4,8 1,5 5 3 16 9 WSW 0,0
17.02.2018 14:00:00 5,1 1,5 4 2 12 6 WSW 0,1
17.02.2018 13:00:00 4,3 1,9 6 3 18 10 SW -
17.02.2018 12:00:00 4,6 2,5 5 3 18 10 SW 0,0
17.02.2018 11:00:00 4,6 3,4 3 1 10 5 SW 0,8
17.02.2018 10:00:00 3,4 2,7 1 0 7 4 SW 1,6
17.02.2018 09:00:00 2,9 1,7 0 0 6 3 NNE 0,7
17.02.2018 08:00:00 2,3 1,3 3 1 5 3 NE 0,0
17.02.2018 07:00:00 1,7 0,6 2 1 9 5 ENE -
17.02.2018 06:00:00 1,1 0,2 1 1 6 3 ENE 0,0
17.02.2018 05:00:00 2,0 0,4 1 1 6 3 NE 0,0
17.02.2018 04:00:00 3,5 0,6 3 2 13 7 ESE 0,0
17.02.2018 03:00:00 4,7 1,5 6 3 14 7 E 0,0
17.02.2018 02:00:00 2,5 0,9 0 0 12 6 N 0,0
17.02.2018 01:00:00 2,3 0,9 1 1 11 6 ENE -
17.02.2018 00:00:00 2,6 1,1 1 1 6 4 ENE 0,0
16.02.2018 23:00:00 2,8 1,1 2 1 10 6 NE 0,0
16.02.2018 22:00:00 3,5 0,9 0 0 16 9 ENE 0,0
16.02.2018 21:00:00 6,3 1,9 5 3 17 9 E 0,0
16.02.2018 20:00:00 4,8 1,3 1 0 15 8 W 0,0
16.02.2018 19:00:00 5,0 1,7 0 0 13 7 SE -
16.02.2018 18:00:00 5,6 1,5 1 1 9 5 ENE 0,0
16.02.2018 17:00:00 8,6 1,7 5 3 11 6 ENE 0,0
16.02.2018 16:00:00 12,6 1,9 7 4 17 9 ENE 0,0
16.02.2018 15:00:00 14,3 2,5 9 5 18 10 NE 0,0
16.02.2018 14:00:00 13,5 2,1 8 5 19 10 NE 0,0
16.02.2018 13:00:00 12,0 2,7 3 2 12 6 NE -
16.02.2018 12:00:00 8,1 2,5 2 1 5 3 ENE 0,0
16.02.2018 11:00:00 6,9 2,5 0 0 4 2 NE 0,0
16.02.2018 10:00:00 4,7 2,1 1 1 13 7 NE 0,0
16.02.2018 09:00:00 4,0 2,1 5 3 13 7 ENE 0,0
16.02.2018 08:00:00 2,2 0,6 0 0 14 8 ENE 0,0
16.02.2018 07:00:00 2,1 1,1 5 3 9 5 ENE -
16.02.2018 06:00:00 3,1 1,7 4 2 12 6 E 0,0
16.02.2018 05:00:00 2,3 1,3 1 1 7 4 ENE 0,0
16.02.2018 04:00:00 2,4 1,3 3 1 5 3 ENE 0,0
16.02.2018 03:00:00 3,1 1,7 0 0 10 5 E 0,0
16.02.2018 02:00:00 3,1 1,3 1 1 14 8 ENE 0,0
16.02.2018 01:00:00 2,4 1,5 1 1 8 4 NE -
16.02.2018 00:00:00 2,3 1,3 2 1 11 6 E 0,0
15.02.2018 23:00:00 2,6 1,5 1 0 9 5 NNE 0,0
15.02.2018 22:00:00 2,7 1,7 2 1 13 7 ENE 0,0
15.02.2018 21:00:00 3,8 2,7 5 3 11 6 ENE 0,0
15.02.2018 20:00:00 3,5 2,1 3 1 12 6 ENE 0,0
15.02.2018 19:00:00 3,9 2,5 3 2 10 5 ENE -
15.02.2018 18:00:00 4,7 2,5 3 1 6 3 NE 0,0
15.02.2018 17:00:00 5,4 2,5 1 0 6 4 ENE 0,0
15.02.2018 16:00:00 8,7 3,6 3 1 9 5 NE 0,0
15.02.2018 15:00:00 9,5 4,3 5 3 10 5 NE 0,0
15.02.2018 14:00:00 9,3 4,3 4 2 6 4 NE 0,0
15.02.2018 13:00:00 8,7 4,3 4 2 8 4 NE -
15.02.2018 12:00:00 7,6 4,1 3 1 8 4 ENE 0,0
15.02.2018 11:00:00 5,2 3,8 3 2 7 4 ENE 0,0

tt = Température de l'air
td = dewpoint
ff = Vitesse du vent
fx = gusts
dd = Direction du vent
rr = Quantités de précipitations

stations d'obs. à proximité